Betty L — WDF8115 — position and weather

sailwx.info

Track history (hours):
 
Tides and Currents Weather Stations Pressure Air Temp Water Temp Dewpoint Dewpoint Depression Visibility Wind Speed Wind Dir Waves Ship Positions

Betty L

Owner: J.A.M. Marine Services, LLC, Houston, TX. More information available from US FCC via Universal Licensing System and Coast Guard Vessel Documentation Center.

Last reported at 2017-Oct-09 18:44 UTC. Time now 2017-Oct-22 06:21 UTC.
Position N 29°47' W 095°04'.
Warning: this ship's position is 12 days out of date.

Length 92 m.

Type: Other ship. MMSI: 367491540.

Date/timePositionNaut miles runAvg speedWind from/ knotsBaromVisibWave heightAir tempDewpointWater temp
2017-Oct-09 18:44N 29°47' W 095°04'0 0.0
2017-Oct-09 18:20N 29°47' W 095°04'0 0.0
2017-Oct-09 17:53N 29°47' W 095°04'0 0.0
2017-Oct-09 17:20N 29°47' W 095°04'2 0.0
2017-Oct-08 03:20N 29°46' W 095°05'1 0.1
2017-Oct-07 10:37N 29°45' W 095°06'0 0.0
2017-Oct-07 10:16N 29°45' W 095°06'0 0.0
2017-Oct-07 09:58N 29°45' W 095°06'0 0.1
2017-Oct-07 05:52N 29°45' W 095°06'2 0.1
2017-Oct-06 12:55N 29°47' W 095°05'2 3.6
2017-Oct-06 12:20N 29°45' W 095°06'2 5.6
2017-Oct-06 11:58N 29°44' W 095°07'3 6.0
2017-Oct-06 11:27N 29°45' W 095°11'3 5.6
2017-Oct-06 10:59N 29°44' W 095°14'2 4.8
2017-Oct-06 10:29N 29°43' W 095°16'0 0.0
2017-Oct-06 09:53N 29°43' W 095°16'0 0.0
2017-Oct-06 09:20N 29°43' W 095°16'0 0.0
2017-Oct-06 08:56N 29°43' W 095°16'0 0.0
2017-Oct-06 07:35N 29°43' W 095°16'0 0.0
2017-Oct-06 07:29N 29°43' W 095°16'0 0.0
2017-Oct-06 06:59N 29°43' W 095°16'0 0.5
2017-Oct-06 06:21N 29°44' W 095°16'2 5.2
2017-Oct-06 05:59N 29°44' W 095°14'3 5.6
2017-Oct-06 05:30N 29°45' W 095°11'3 5.8
2017-Oct-06 05:00N 29°44' W 095°08'3 5.8
2017-Oct-06 04:29N 29°46' W 095°05'2 0.7
2017-Oct-06 02:17N 29°47' W 095°04'  
2017-Oct-03 16:14N 29°44' W 095°07'2 7.2
2017-Oct-03 16:00N 29°44' W 095°09'3 6.3
2017-Oct-03 15:27N 29°44' W 095°13'1 1.2
2017-Oct-03 14:46N 29°43' W 095°14'0 0.0
2017-Oct-03 13:02N 29°44' W 095°14'0 1.8
2017-Oct-03 13:00N 29°44' W 095°14'0 0.0
2017-Oct-03 12:19N 29°44' W 095°14'2 3.7
2017-Oct-03 11:46N 29°45' W 095°12'1 5.5
2017-Oct-03 11:30N 29°45' W 095°10'4 5.5
2017-Oct-03 10:47N 29°45' W 095°06'2 0.1
2017-Oct-02 18:18N 29°47' W 095°05'3 3.7
2017-Oct-02 17:22N 29°44' W 095°07'3 1.2
2017-Oct-02 14:36N 29°45' W 095°11'0 4.2
2017-Oct-02 14:30N 29°45' W 095°10'3 6.3
2017-Oct-02 13:59N 29°45' W 095°06'2 0.1
2017-Oct-02 00:42N 29°46' W 095°05'1 7.0
2017-Oct-02 00:30N 29°45' W 095°06'3 6.0
2017-Oct-02 00:00N 29°44' W 095°09'3 6.1
2017-Oct-01 23:30N 29°44' W 095°13'3 3.2
2017-Oct-01 22:42N 29°44' W 095°16'0 0.0
2017-Oct-01 22:30N 29°44' W 095°16'0 0.0
2017-Oct-01 21:39N 29°44' W 095°16'0 0.0
2017-Oct-01 21:21N 29°44' W 095°16'0 0.0
2017-Oct-01 20:57N 29°44' W 095°16'0 0.0
2017-Oct-01 20:21N 29°44' W 095°16'0 0.0
2017-Oct-01 20:00N 29°44' W 095°16'0 0.3
2017-Oct-01 19:12N 29°43' W 095°16'1 3.1
2017-Oct-01 19:00N 29°44' W 095°15'3 4.8
2017-Oct-01 18:25N 29°44' W 095°12'3 6.1
2017-Oct-01 18:00N 29°44' W 095°09'5 0.4
2017-Oct-01 04:42N 29°47' W 095°05'0 2.1
2017-Oct-01 04:30N 29°47' W 095°04'3 5.2
2017-Oct-01 04:00N 29°45' W 095°06'0 0.0
2017-Sep-30 01:49N 29°45' W 095°06'1 2.2
2017-Sep-30 01:30N 29°45' W 095°06'1 2.8
2017-Sep-30 01:00N 29°45' W 095°04'2 3.6
2017-Sep-30 00:31N 29°44' W 095°03'2 3.4
2017-Sep-30 00:00N 29°43' W 095°01'1 1.2
2017-Sep-29 23:29N 29°42' W 095°01'1 2.6
2017-Sep-29 23:00N 29°42' W 094°60'2 4.6
2017-Sep-29 22:30N 29°40' W 094°58'3 5.2
2017-Sep-29 22:00N 29°37' W 094°57'3 5.2
2017-Sep-29 21:30N 29°35' W 094°56'3 5.2
2017-Sep-29 21:00N 29°33' W 094°54'3 5.0
2017-Sep-29 20:30N 29°31' W 094°53'  
Track history (hours):
 
Tides and Currents Weather Stations Pressure Air Temp Water Temp Dewpoint Dewpoint Depression Visibility Wind Speed Wind Dir Waves Ship Positions

Betty L

Owner: J.A.M. Marine Services, LLC, Houston, TX. More information available from US FCC via Universal Licensing System and Coast Guard Vessel Documentation Center.

Last reported at 2017-Oct-09 18:44 UTC. Time now 2017-Oct-22 06:21 UTC.
Position N 29°47' W 095°04'.
Warning: this ship's position is 12 days out of date.

Length 92 m.

Type: Other ship. MMSI: 367491540.

Date/timePositionNaut miles runAvg speedWind from/ knotsBaromVisibWave heightAir tempDewpointWater temp
2017-Oct-09 18:44N 29°47' W 095°04'0 0.0
2017-Oct-09 18:20N 29°47' W 095°04'0 0.0
2017-Oct-09 17:53N 29°47' W 095°04'0 0.0
2017-Oct-09 17:20N 29°47' W 095°04'2 0.0
2017-Oct-08 03:20N 29°46' W 095°05'1 0.1
2017-Oct-07 10:37N 29°45' W 095°06'0 0.0
2017-Oct-07 10:16N 29°45' W 095°06'0 0.0
2017-Oct-07 09:58N 29°45' W 095°06'0 0.1
2017-Oct-07 05:52N 29°45' W 095°06'2 0.1
2017-Oct-06 12:55N 29°47' W 095°05'2 3.6
2017-Oct-06 12:20N 29°45' W 095°06'2 5.6
2017-Oct-06 11:58N 29°44' W 095°07'3 6.0
2017-Oct-06 11:27N 29°45' W 095°11'3 5.6
2017-Oct-06 10:59N 29°44' W 095°14'2 4.8
2017-Oct-06 10:29N 29°43' W 095°16'0 0.0
2017-Oct-06 09:53N 29°43' W 095°16'0 0.0
2017-Oct-06 09:20N 29°43' W 095°16'0 0.0
2017-Oct-06 08:56N 29°43' W 095°16'0 0.0
2017-Oct-06 07:35N 29°43' W 095°16'0 0.0
2017-Oct-06 07:29N 29°43' W 095°16'0 0.0
2017-Oct-06 06:59N 29°43' W 095°16'0 0.5
2017-Oct-06 06:21N 29°44' W 095°16'2 5.2
2017-Oct-06 05:59N 29°44' W 095°14'3 5.6
2017-Oct-06 05:30N 29°45' W 095°11'3 5.8
2017-Oct-06 05:00N 29°44' W 095°08'3 5.8
2017-Oct-06 04:29N 29°46' W 095°05'2 0.7
2017-Oct-06 02:17N 29°47' W 095°04'  
2017-Oct-03 16:14N 29°44' W 095°07'2 7.2
2017-Oct-03 16:00N 29°44' W 095°09'3 6.3
2017-Oct-03 15:27N 29°44' W 095°13'1 1.2
2017-Oct-03 14:46N 29°43' W 095°14'0 0.0
2017-Oct-03 13:02N 29°44' W 095°14'0 1.8
2017-Oct-03 13:00N 29°44' W 095°14'0 0.0
2017-Oct-03 12:19N 29°44' W 095°14'2 3.7
2017-Oct-03 11:46N 29°45' W 095°12'1 5.5
2017-Oct-03 11:30N 29°45' W 095°10'4 5.5
2017-Oct-03 10:47N 29°45' W 095°06'2 0.1
2017-Oct-02 18:18N 29°47' W 095°05'3 3.7
2017-Oct-02 17:22N 29°44' W 095°07'3 1.2
2017-Oct-02 14:36N 29°45' W 095°11'0 4.2
2017-Oct-02 14:30N 29°45' W 095°10'3 6.3
2017-Oct-02 13:59N 29°45' W 095°06'2 0.1
2017-Oct-02 00:42N 29°46' W 095°05'1 7.0
2017-Oct-02 00:30N 29°45' W 095°06'3 6.0
2017-Oct-02 00:00N 29°44' W 095°09'3 6.1
2017-Oct-01 23:30N 29°44' W 095°13'3 3.2
2017-Oct-01 22:42N 29°44' W 095°16'0 0.0
2017-Oct-01 22:30N 29°44' W 095°16'0 0.0
2017-Oct-01 21:39N 29°44' W 095°16'0 0.0
2017-Oct-01 21:21N 29°44' W 095°16'0 0.0
2017-Oct-01 20:57N 29°44' W 095°16'0 0.0
2017-Oct-01 20:21N 29°44' W 095°16'0 0.0
2017-Oct-01 20:00N 29°44' W 095°16'0 0.3
2017-Oct-01 19:12N 29°43' W 095°16'1 3.1
2017-Oct-01 19:00N 29°44' W 095°15'3 4.8
2017-Oct-01 18:25N 29°44' W 095°12'3 6.1
2017-Oct-01 18:00N 29°44' W 095°09'5 0.4
2017-Oct-01 04:42N 29°47' W 095°05'0 2.1
2017-Oct-01 04:30N 29°47' W 095°04'3 5.2
2017-Oct-01 04:00N 29°45' W 095°06'0 0.0
2017-Sep-30 01:49N 29°45' W 095°06'1 2.2
2017-Sep-30 01:30N 29°45' W 095°06'1 2.8
2017-Sep-30 01:00N 29°45' W 095°04'2 3.6
2017-Sep-30 00:31N 29°44' W 095°03'2 3.4
2017-Sep-30 00:00N 29°43' W 095°01'1 1.2
2017-Sep-29 23:29N 29°42' W 095°01'1 2.6
2017-Sep-29 23:00N 29°42' W 094°60'2 4.6
2017-Sep-29 22:30N 29°40' W 094°58'3 5.2
2017-Sep-29 22:00N 29°37' W 094°57'3 5.2
2017-Sep-29 21:30N 29°35' W 094°56'3 5.2
2017-Sep-29 21:00N 29°33' W 094°54'3 5.0
2017-Sep-29 20:30N 29°31' W 094°53'  

Dump ship's entire track history